Aviation Digital Data Service (ADDS)

Output produced by METARs form (1239 UTC 15 November 2018)
found at http://www.aviationweather.gov/metar/data/
 
KCAE 151137Z 1512/1612 35008KT 6SM -RA BR SCT007 OVC015 
     TEMPO 1512/1514 4SM RA BR BKN007 OVC014 
     FM151500 33009KT P6SM VCSH SCT007 BKN020 OVC040 
     FM151900 30008KT P6SM SCT008 BKN020 
     FM160200 27008KT P6SM SCT015
       
KCAK 151143Z 1512/1612 12010KT P6SM -FZRASNPL OVC040 
     FM151300 12009KT 5SM -FZRASNPL OVC030 
     TEMPO 1513/1516 3SM -FZRASNPL BKN012 
     FM151600 10008KT 2SM -FZRASN OVC006 
     FM152300 09006KT 3SM -SN OVC008
       
KCAR 151120Z 1512/1612 28007KT P6SM FEW250 
     FM152100 20004KT P6SM SCT150 
     FM160900 12004KT P6SM OVC090
       
TAF KCBM 150900Z 1509/1615 28012KT 9999 BKN015 QNH3014INS 
     BECMG 1514/1515 29010KT 9999 BKN020 QNH3012INS 
     BECMG 1517/1518 29010KT 9999 BKN030 QNH3011INS 
     BECMG 1520/1521 28012G18KT 9999 FEW025 QNH3010INS 
     BECMG 1523/1524 23006KT 9999 SKC QNH3008INS TX07/1522Z TNM01/1509Z
       
KCDC 151120Z 1512/1612 VRB04KT P6SM SKC
       
KCDR 151120Z 1512/1612 28007KT P6SM SCT250 
     FM151700 32018G25KT P6SM SCT250 
     FM160000 27005KT P6SM FEW250
       
KCDS 151125Z 1512/1612 25010KT P6SM FEW250
       
KCEC 151129Z 1512/1612 VRB04KT 4SM BR FEW035 SCT250 
     FM151800 35006KT 6SM HZ SCT250 
     FM152100 32009KT 5SM HZ SCT250 
     FM160300 VRB03KT 6SM BR FEW250 
     FM160800 04003KT 3SM BR SCT002
       
TAF KCEF 151100Z 1511/1617 VRB06KT 9999 OVC250 QNH3056INS 
     BECMG 1514/1515 10006KT 9999 BKN150 OVC200 QNH3033INS 
     BECMG 1522/1523 07009KT 9999 BKN015 OVC045 620159 QNH3032INS 
     BECMG 1523/1524 07009KT 1600 -SN BR BKN008 OVC015 620089 510103 QNH3018INS 
     BECMG 1602/1603 05009KT 0800 SN FZFG BKN005 OVC008 620059 510103 QNH2985INS

     BECMG 1606/1607 05012KT 4800 -SNPL FEW005 OVC010 660104 540108 QNH2955INS 
     BECMG 1610/1611 04009KT 3200 -FZDZ BR OVC005 660004 540106 QNH2947INS 
     BECMG 1612/1613 35009KT 4800 -RA BR OVC005 620654 510204 QNH2944INS 
     BECMG 1614/1615 32010G15KT 1600 -SN BR OVC005 620059 510403 QNH2946INS 
     BECMG 1616/1617 31010G15KT 9999 NSW FEW009 BKN027 620272 510403 QNH2945INS
TX02/1519Z TNM06/1511Z
       
KCGI 151120Z 1512/1612 28006KT 4SM -SN BR SCT008 OVC015 
     TEMPO 1512/1515 2SM -SN BR BKN008 
     FM151500 28007KT P6SM SCT015 OVC025 
     FM152300 26004KT P6SM SCT025 BKN035 
     FM160200 VRB03KT P6SM SCT035 
     FM160500 VRB03KT P6SM SKC
       
KCHA 151141Z 1512/1612 27007KT 4SM -DZ BR OVC008 
     FM151600 28005KT P6SM OVC015 
     FM152000 31010KT P6SM OVC020 
     FM160800 VRB03KT P6SM SCT020
       
KCHO 151120Z 1512/1612 04008KT 5SM -FZRASNPL SCT025 OVC035 
     FM151500 04010G17KT 2SM -FZRAPL BKN008 OVC025 
     FM151900 03011G19KT 2SM -RA BKN008 OVC025 
     FM160100 36007KT 3SM -RA BKN003 OVC025 
     FM160600 29006KT P6SM OVC025 
     FM160800 27007KT P6SM FEW100 SCT250
       
KCHS 151221Z 1512/1612 35008KT 6SM -RA OVC005 WS020/17032KT 
     FM151400 35010KT 6SM -RADZ OVC007 
     FM151700 31007KT P6SM OVC010 
     FM151900 30008KT P6SM BKN020 
     FM152300 28008KT P6SM SCT020
       
KCID 151120Z 1512/1612 16005KT P6SM SKC 
     FM151600 20010KT P6SM SKC 
     FM160200 25011KT P6SM SCT040 
     FM160600 28013KT P6SM BKN035
       
KCKB 151120Z 1512/1612 13008KT 6SM -RA BR OVC035 
     TEMPO 1512/1515 3SM -RA BR OVC025 
     FM151500 09004KT 3SM -RA BR OVC015 
     TEMPO 1515/1517 1SM -RA BR OVC005 
     FM151700 10006KT 3SM -RA BR OVC010 
     TEMPO 1517/1521 2SM -RA OVC004 
     FM160000 35005KT 5SM -PLRA OVC010 
     FM160300 29008KT 6SM -SNRA OVC008 
     FM160600 26009G18KT 6SM -SNRA OVC008 
     FM160800 25010G20KT P6SM -SN OVC009
       
KCKV 151120Z 1512/1612 23007KT P6SM SCT009 OVC014 
     TEMPO 1512/1516 4SM -SN BKN009 OVC014 
     FM152300 26009KT P6SM OVC050 
     FM160300 23004KT P6SM SCT250
       
KCLE 151213Z 1512/1618 13006KT P6SM -PLSN OVC070 
     TEMPO 1513/1516 5SM -FZRASNPL BKN025 
     FM151600 11007KT 5SM -FZRA OVC008 
     FM151700 12007KT 4SM -RASN OVC008 
     FM160000 14005KT 5SM -SHSN OVC008 
     FM161400 23012G22KT P6SM BKN050
       
KCLL 151120Z 1512/1612 19006KT P6SM SKC
       
KCLM 151135Z 1512/1612 23004KT P6SM FEW040 OVC080 
     FM151800 VRB04KT P6SM SCT020 BKN050 
     FM160300 25003KT P6SM VCSH SCT025 BKN050 
     FM160900 25004KT P6SM -RA OVC020
       
KCLT 151120Z 1512/1618 02012KT 4SM -RA SCT008 OVC013 
     TEMPO 1512/1515 2SM +RA OVC008 
     FM151500 02012KT 6SM -RA OVC007 
     FM151800 36007KT P6SM OVC008 
     FM160100 26006KT P6SM OVC005 
     FM160400 29008G17KT P6SM SCT050 
     FM160800 29007KT P6SM FEW250
       
KCMA 151123Z 1512/1612 06006KT P6SM SKC 
     FM151400 07014G20KT P6SM SCT250 
     FM152200 27010KT P6SM SCT250 
     FM160200 VRB03KT P6SM SCT250
       
KCMH 151132Z 1512/1612 10008KT 5SM -FZRA BR BKN010 OVC035 
     FM151400 12006KT 5SM -RA BR OVC012 
     FM152300 15006KT 5SM -RASN BR OVC008 
     FM160200 27008KT 5SM BR VCSH SCT004 OVC010
       
KCMI 151144Z 1512/1612 03006KT 4SM -SN BR OVC020 
     TEMPO 1512/1514 1SM -SN BR VV006 
     FM151600 35005KT P6SM VCSH OVC008 
     FM152300 26005KT P6SM OVC015 
     FM160100 26006KT P6SM BKN050
       
KCMX 151126Z 1512/1612 18010G15KT P6SM SCT200 
     FM151800 19010KT P6SM BKN200 
     FM152100 19006KT P6SM BKN050 OVC100 
     FM160000 22006KT P6SM BKN040 
     FM160300 24006KT P6SM VCSH OVC035 
     FM160400 26005KT 4SM -SHSN OVC015 
     FM160700 31010G15KT 1SM -SHSN OVC010
       
KCNM 151120Z 1512/1612 27006KT P6SM SCT250
       
KCNU 151132Z 1512/1612 18007KT P6SM SKC 
     FM151500 18013KT P6SM SKC 
     FM152200 19007KT P6SM SKC
       
KCNY 151124Z 1512/1612 00000KT P6SM SKC 
     FM152200 33004KT P6SM SKC 
     FM160300 23004KT P6SM SKC
       
KCOD 151124Z 1512/1612 27012G20KT P6SM FEW120 SCT200 
     FM151600 06008KT P6SM SCT200 
     FM152200 18008KT P6SM SCT200 
     FM160300 25012G20KT P6SM SCT120 BKN200 WS010/27040KT AMD LTD TO CLD VIS AND
WIND
       
KCOE 151130Z 1512/1612 17003KT P6SM BKN150 
     FM151600 20004KT P6SM OVC025 
     FM152200 21006KT 6SM -SHRA OVC008
       
TAF AMD KCOF 151200Z 1512/1617 20010G15KT 9999 VCSH BKN005 BKN010 BKN030
QNH2994INS 
     TEMPO 1512/1515 20012G20KT 8000 -SHRA BKN010 BKN030 
     BECMG 1515/1516 28012KT 9999 NSW SCT010 SCT020 BKN035 QNH2993INS 
     BECMG 1520/1521 32012KT 9999 SCT020 QNH2996INS 
     BECMG 1603/1604 32012KT 9999 FEW100 QNH3002INS 
     BECMG 1606/1607 33012G18KT 9999 SKC QNH3003INS TX26/1517Z TN13/1609Z AMD
151200
       
KCON 151131Z 1512/1612 34003KT P6SM SCT250 
     FM151800 16006KT P6SM BKN080 OVC150 
     FM160100 10003KT 6SM -SN BKN025 
     FM160400 07006KT 4SM -SN BR OVC007 
     FM160500 06004KT 2SM -SN BR OVC003
       
KCOS 151141Z 1512/1612 34011KT P6SM FEW250 
     FM151500 36009KT P6SM FEW250 
     FM151900 06009KT P6SM SCT250 
     FM160100 VRB06KT P6SM SCT250
       
KCOU 151137Z 1512/1612 00000KT P6SM VCSH BKN035 
     FM151300 VRB03KT P6SM BKN060 
     FM151500 25005KT P6SM FEW110 
     FM152000 22007KT P6SM FEW250 
     FM160800 27007KT P6SM FEW250
       
KCPS 151137Z 1512/1612 31006KT 1SM -SN OVC007 
     FM151600 31007KT P6SM VCSH OVC015 
     FM152100 28006KT P6SM SCT110 
     FM152200 25005KT P6SM SCT250 
     FM160700 21005KT P6SM SKC
       
KCRE 151122Z 1512/1612 05011G18KT 6SM RA OVC009 
     FM151700 33009G17KT P6SM OVC015 
     FM160600 29014KT P6SM SCT015
       
KCRG 151120Z 1512/1612 32012G20KT 6SM -RA BKN007 BKN020 
     FM151500 29009KT P6SM VCSH SCT007 BKN010 
     FM152100 29008KT P6SM BKN015 OVC120 
     FM160200 30006KT P6SM SCT020
       
KCRP 151120Z 1512/1612 24005KT P6SM SKC 
     FM152000 16005KT P6SM SCT250 
     FM160300 VRB04KT P6SM SKC
       
KCRQ 151126Z 1512/1612 VRB04KT P6SM SKC 
     FM152000 25007KT P6SM SCT250 
     FM160100 VRB04KT P6SM SCT002 BKN250 
     TEMPO 1608/1612 1/2SM FG BKN001
       
KCRW 151120Z 1512/1612 10006KT 6SM -RA BR OVC040 
     TEMPO 1512/1515 3SM -RA BR OVC025 
     FM151500 08006KT 3SM -RA BR OVC025 
     TEMPO 1515/1519 1SM -RA BR OVC008 
     FM151900 31004KT P6SM -RA OVC008 
     FM160200 25009G18KT 6SM -SNRA OVC011 
     FM160400 25010G20KT P6SM -SN OVC012 
     FM161000 25009KT P6SM OVC014
       
KCSG 151127Z 1512/1612 00000KT 5SM BR FEW012 BKN028 OVC050 
     FM151700 29009KT P6SM BKN025 
     FM151800 29009G20KT P6SM SCT025 
     FM160000 30008KT P6SM FEW150 
     FM160600 30004KT P6SM FEW250
       
KCSM 151120Z 1512/1612 20011KT P6SM SKC 
     FM160500 34007KT P6SM SCT250
       
KCSV 151120Z 1512/1612 27006KT P6SM OVC007 
     TEMPO 1512/1516 4SM -RA OVC003 
     FM151600 25007KT 6SM -SN OVC015 
     FM152000 27011KT P6SM OVC035 
     FM160800 24004KT P6SM SCT050
       
KCTB 151125Z 1512/1612 27016KT P6SM BKN200 
     FM151900 24020G28KT P6SM SCT100 BKN200 
     FM160500 23024G34KT P6SM OVC100 
     FM160900 29015KT P6SM -SHRASN SCT040 OVC070 
     FM161100 34018G25KT 2SM -SN BKN015
       
KCUB 151137Z 1512/1612 36008KT 6SM -RA BR SCT007 OVC015 
     TEMPO 1512/1514 4SM RA BR BKN007 OVC014 
     FM151500 33009KT P6SM VCSH SCT007 BKN020 OVC040 
     FM151900 30008KT P6SM SCT008 BKN020 
     FM160200 27008KT P6SM SCT015
       
KCVG 151132Z 1512/1618 10009KT 4SM -RA BR OVC007 
     FM151800 15006KT P6SM -RA OVC006 
     FM152200 25005KT 4SM -SNRA BR OVC005 
     FM160200 25008KT 5SM BR VCSH SCT004 OVC010 
     FM161300 23012KT P6SM BKN015
       
TAF KCVS 151000Z 1510/1616 27008KT 9999 SKC QNH3021INS 
     BECMG 1518/1519 24010G15KT 9999 FEW250 QNH3013INS 
     BECMG 1600/1601 VRB06KT 9999 SKC QNH3013INS TX17/1521Z TN01/1513Z
       
KCWA 151136Z 1512/1612 16007KT P6SM SKC 
     FM151600 18010G16KT P6SM SCT250 
     FM152100 19007KT P6SM BKN100 
     FM160400 26006KT 3SM -SHSN BKN025 
     FM160700 25006KT 6SM -SHSN BKN015
       
KCXO 151120Z 1512/1612 23005KT P6SM SKC
       
KCXP 151129Z 1512/1612 00000KT P6SM SCT220 
     FM152000 08010KT P6SM FEW180 BKN220 
     FM160200 VRB03KT P6SM SCT200
       
KCYS 151120Z 1512/1612 30018G28KT P6SM SCT250 
     FM151700 32015G23KT P6SM SCT250 
     FM160000 30008KT P6SM FEW250